createdAt,value
2019-05-01T00:02:10.041Z,9.50
2019-05-01T00:06:15.526Z,9.40
2019-05-01T00:10:22.011Z,9.50
2019-05-01T00:14:25.450Z,9.50
2019-05-01T00:18:28.960Z,9.50
2019-05-01T00:22:32.429Z,9.50
2019-05-01T00:26:36.152Z,9.40
2019-05-01T00:30:41.123Z,9.40
2019-05-01T00:34:44.565Z,9.40
2019-05-01T00:38:48.310Z,9.40
2019-05-01T00:42:51.769Z,9.30
2019-05-01T00:46:55.227Z,9.30
2019-05-01T00:50:59.038Z,9.30
2019-05-01T00:55:20.528Z,9.30
2019-05-01T00:59:25.611Z,9.20
2019-05-01T01:03:29.435Z,9.20
2019-05-01T01:07:32.898Z,9.20
2019-05-01T01:11:36.423Z,9.10
2019-05-01T01:15:40.170Z,9.10
2019-05-01T01:19:43.980Z,9.10
2019-05-01T01:23:47.682Z,9.10
2019-05-01T01:27:51.401Z,9.10
2019-05-01T01:31:54.860Z,9.10
2019-05-01T01:35:58.305Z,9.00
2019-05-01T01:40:02.201Z,9.10
2019-05-01T01:44:11.033Z,9.10
2019-05-01T01:48:16.318Z,9.00
2019-05-01T01:52:21.918Z,8.90
2019-05-01T01:56:25.617Z,8.90
2019-05-01T02:00:42.690Z,8.90
2019-05-01T02:04:54.117Z,8.90
2019-05-01T02:08:57.564Z,8.90
2019-05-01T02:13:01.542Z,8.80
2019-05-01T02:17:05.349Z,8.90
2019-05-01T02:21:08.798Z,8.90
2019-05-01T02:25:14.003Z,8.80
2019-05-01T02:29:19.462Z,8.90
2019-05-01T02:33:22.994Z,8.90
2019-05-01T02:37:28.489Z,8.90
2019-05-01T02:41:34.820Z,8.80
2019-05-01T02:45:40.447Z,8.80
2019-05-01T02:49:49.902Z,8.80
2019-05-01T02:53:54.601Z,8.80
2019-05-01T02:57:58.767Z,8.90
2019-05-01T03:02:03.485Z,8.80
2019-05-01T03:06:07.245Z,8.80
2019-05-01T03:10:11.249Z,8.80
2019-05-01T03:14:17.770Z,8.80
2019-05-01T03:18:34.846Z,8.90
2019-05-01T03:22:48.778Z,8.80
2019-05-01T03:26:52.602Z,8.70
2019-05-01T03:30:56.228Z,8.70
2019-05-01T03:34:59.842Z,8.70
2019-05-01T03:39:05.323Z,8.80
2019-05-01T03:43:09.102Z,8.70
2019-05-01T03:47:12.810Z,8.70
2019-05-01T03:51:16.527Z,8.70
2019-05-01T03:55:20.542Z,8.70
2019-05-01T03:59:24.494Z,8.60
2019-05-01T04:03:30.008Z,8.60
2019-05-01T04:07:36.250Z,8.50
2019-05-01T04:11:38.990Z,8.50
2019-05-01T04:15:42.882Z,8.50
2019-05-01T04:19:46.410Z,8.60
2019-05-01T04:23:50.107Z,8.60
2019-05-01T04:27:58.671Z,8.60
2019-05-01T04:32:02.777Z,8.60
2019-05-01T04:36:16.995Z,8.70
2019-05-01T04:40:20.908Z,8.70
2019-05-01T04:44:24.427Z,8.60
2019-05-01T04:48:28.004Z,8.60
2019-05-01T04:52:31.478Z,8.60
2019-05-01T04:56:35.499Z,8.60
2019-05-01T05:00:39.309Z,8.60
2019-05-01T05:04:42.907Z,8.60
2019-05-01T05:08:46.362Z,8.60
2019-05-01T05:12:54.109Z,8.60
2019-05-01T05:16:59.606Z,8.60
2019-05-01T05:21:03.501Z,8.70
2019-05-01T05:25:07.030Z,8.70
2019-05-01T05:29:11.529Z,8.70
2019-05-01T05:33:18.947Z,8.70
2019-05-01T05:37:29.950Z,8.80
2019-05-01T05:41:33.533Z,8.80
2019-05-01T05:45:37.478Z,8.80
2019-05-01T05:49:41.114Z,8.90
2019-05-01T05:53:51.798Z,8.90
2019-05-01T05:57:59.057Z,8.90
2019-05-01T06:02:22.518Z,8.80
2019-05-01T06:06:32.652Z,8.90
2019-05-01T06:10:38.359Z,8.80
2019-05-01T06:14:45.773Z,8.90
2019-05-01T06:18:53.883Z,9.00
2019-05-01T06:23:20.715Z,8.90
2019-05-01T06:27:22.560Z,8.90
2019-05-01T06:31:26.118Z,8.90
2019-05-01T06:35:29.566Z,8.90
2019-05-01T06:39:33.528Z,8.90
2019-05-01T06:43:47.554Z,8.90
2019-05-01T06:47:52.911Z,9.00
2019-05-01T06:52:01.039Z,9.10
2019-05-01T06:56:05.238Z,9.20
2019-05-01T07:00:11.038Z,9.20
2019-05-01T07:04:14.846Z,9.20
2019-05-01T07:08:24.599Z,9.20
2019-05-01T07:12:28.495Z,9.20
2019-05-01T07:16:33.250Z,9.30
2019-05-01T07:20:47.332Z,9.30
2019-05-01T07:24:52.773Z,9.20
2019-05-01T07:29:06.053Z,9.20
2019-05-01T07:33:11.976Z,9.20
2019-05-01T07:37:14.878Z,9.30
2019-05-01T07:41:18.661Z,9.40
2019-05-01T07:45:27.317Z,9.50
2019-05-01T07:49:56.786Z,9.50
2019-05-01T07:54:04.024Z,9.70
2019-05-01T07:58:10.180Z,9.60
2019-05-01T08:02:14.428Z,9.60
2019-05-01T08:06:21.684Z,9.70
2019-05-01T08:10:25.916Z,9.80
2019-05-01T08:14:28.559Z,9.90
2019-05-01T08:18:36.380Z,9.90
2019-05-01T08:22:39.825Z,10.00
2019-05-01T08:26:44.162Z,10.00
2019-05-01T08:30:52.746Z,10.00
2019-05-01T08:35:00.576Z,10.10
2019-05-01T08:39:04.988Z,10.10
2019-05-01T08:43:07.023Z,10.10
2019-05-01T08:47:20.855Z,10.20
2019-05-01T08:51:23.129Z,10.40
2019-05-01T08:55:26.815Z,10.40
2019-05-01T08:59:30.257Z,10.60
2019-05-01T09:03:34.081Z,10.70
2019-05-01T09:07:37.594Z,10.90
2019-05-01T09:11:41.190Z,11.10
2019-05-01T09:15:48.321Z,10.90
2019-05-01T09:19:50.098Z,11.00
2019-05-01T09:23:53.881Z,11.10
2019-05-01T09:27:59.536Z,11.10
2019-05-01T09:32:09.966Z,11.30
2019-05-01T09:36:10.566Z,11.20
2019-05-01T09:40:14.696Z,11.10
2019-05-01T09:44:18.468Z,11.10
2019-05-01T09:48:22.261Z,11.10
2019-05-01T09:52:30.308Z,11.30
2019-05-01T09:56:33.750Z,11.50
2019-05-01T10:00:37.539Z,11.40
2019-05-01T10:04:41.073Z,11.50
2019-05-01T10:08:44.513Z,11.70
2019-05-01T10:12:48.481Z,11.50
2019-05-01T10:16:52.042Z,12.10
2019-05-01T10:20:55.486Z,12.00
2019-05-01T10:24:58.949Z,12.10
2019-05-01T10:29:04.065Z,12.40
2019-05-01T10:33:12.397Z,12.20
2019-05-01T10:37:15.845Z,12.40
2019-05-01T10:41:19.288Z,12.10
2019-05-01T10:45:23.101Z,12.30
2019-05-01T10:49:26.605Z,13.00
2019-05-01T10:53:30.077Z,13.00
2019-05-01T10:57:35.002Z,12.90
2019-05-01T11:01:39.966Z,12.80
2019-05-01T11:05:55.263Z,13.10
2019-05-01T11:09:48.554Z,13.30
2019-05-01T11:13:52.014Z,13.30
2019-05-01T11:17:55.776Z,13.00
2019-05-01T11:22:00.753Z,13.40
2019-05-01T11:26:04.531Z,13.50
2019-05-01T11:30:08.408Z,13.60
2019-05-01T11:34:28.584Z,13.60
2019-05-01T11:38:42.417Z,13.60
2019-05-01T11:42:46.256Z,13.50
2019-05-01T11:46:49.945Z,13.70
2019-05-01T11:50:53.739Z,13.70
2019-05-01T11:54:57.213Z,14.00
2019-05-01T11:59:00.717Z,13.90
2019-05-01T12:03:04.539Z,14.00
2019-05-01T12:07:07.977Z,14.10
2019-05-01T12:11:12.009Z,14.00
2019-05-01T12:15:16.150Z,14.10
2019-05-01T12:19:20.106Z,14.10
2019-05-01T12:23:23.576Z,14.40
2019-05-01T12:27:27.053Z,14.30
2019-05-01T12:31:31.310Z,14.20
2019-05-01T12:35:34.912Z,14.20
2019-05-01T12:39:38.358Z,14.20
2019-05-01T12:43:42.037Z,14.30
2019-05-01T12:47:52.899Z,14.50
2019-05-01T12:52:09.771Z,14.40
2019-05-01T12:56:05.237Z,14.50
2019-05-01T13:00:10.965Z,14.70
2019-05-01T13:04:14.414Z,14.70
2019-05-01T13:08:17.854Z,14.70
2019-05-01T13:12:21.342Z,14.80
2019-05-01T13:16:25.169Z,14.70
2019-05-01T13:20:28.848Z,14.80
2019-05-01T13:24:32.720Z,14.90
2019-05-01T13:28:46.773Z,15.10
2019-05-01T13:32:51.862Z,15.20
2019-05-01T13:37:02.680Z,15.30
2019-05-01T13:41:00.570Z,15.50
2019-05-01T13:45:05.908Z,15.50
2019-05-01T13:49:09.345Z,15.30
2019-05-01T13:53:12.865Z,15.50
2019-05-01T13:57:16.775Z,15.70
2019-05-01T14:01:20.601Z,15.70
2019-05-01T14:05:24.535Z,15.80
2019-05-01T14:09:29.953Z,15.90
2019-05-01T14:13:32.693Z,15.80
2019-05-01T14:17:36.153Z,16.00
2019-05-01T14:21:43.966Z,15.80
2019-05-01T14:26:06.651Z,15.70
2019-05-01T14:30:12.042Z,15.40
2019-05-01T14:34:16.135Z,15.50
2019-05-01T14:38:20.358Z,15.50
2019-05-01T14:42:23.813Z,15.50
2019-05-01T14:46:27.522Z,15.50
2019-05-01T14:50:31.235Z,15.40
2019-05-01T14:54:34.681Z,15.30
2019-05-01T14:58:38.371Z,15.60
2019-05-01T15:02:41.828Z,15.30
2019-05-01T15:06:45.289Z,15.50
2019-05-01T15:10:48.805Z,15.50
2019-05-01T15:14:56.687Z,15.60
2019-05-01T15:19:10.992Z,15.50
2019-05-01T15:23:14.456Z,15.40
2019-05-01T15:27:17.894Z,15.30
2019-05-01T15:31:21.339Z,15.20
2019-05-01T15:35:24.794Z,15.20
2019-05-01T15:39:32.274Z,15.00
2019-05-01T15:43:54.085Z,15.20
2019-05-01T15:47:57.549Z,15.30
2019-05-01T15:52:01.014Z,15.20
2019-05-01T15:56:04.526Z,14.80
2019-05-01T16:00:09.300Z,14.90
2019-05-01T16:04:12.749Z,14.80
2019-05-01T16:08:16.202Z,14.90
2019-05-01T16:12:23.953Z,14.90
2019-05-01T16:16:27.393Z,14.90
2019-05-01T16:20:31.188Z,15.00
2019-05-01T16:24:35.009Z,14.80
2019-05-01T16:28:38.465Z,14.60
2019-05-01T16:32:42.171Z,14.50
2019-05-01T16:36:45.875Z,14.60
2019-05-01T16:41:09.308Z,14.40
2019-05-01T16:45:14.375Z,14.30
2019-05-01T16:49:18.187Z,14.30
2019-05-01T16:53:21.641Z,14.30
2019-05-01T16:57:25.265Z,14.20
2019-05-01T17:01:33.312Z,14.20
2019-05-01T17:05:50.280Z,14.00
2019-05-01T17:09:55.353Z,13.80
2019-05-01T17:13:59.550Z,13.60
2019-05-01T17:18:03.064Z,13.40
2019-05-01T17:22:09.224Z,13.40
2019-05-01T17:26:11.685Z,13.20
2019-05-01T17:30:20.484Z,13.00
2019-05-01T17:34:25.741Z,13.00
2019-05-01T17:38:29.113Z,12.90
2019-05-01T17:42:32.988Z,12.90
2019-05-01T17:46:41.911Z,12.80
2019-05-01T17:50:43.148Z,12.70
2019-05-01T17:54:46.602Z,12.50
2019-05-01T17:58:50.062Z,12.40
2019-05-01T18:02:57.856Z,12.20
2019-05-01T18:07:01.320Z,12.10
2019-05-01T18:11:09.460Z,11.90
2019-05-01T18:15:10.775Z,11.80
2019-05-01T18:19:14.627Z,11.50
2019-05-01T18:23:28.639Z,11.50
2019-05-01T18:27:42.656Z,11.30
2019-05-01T18:31:46.100Z,11.30
2019-05-01T18:35:50.529Z,11.30
2019-05-01T18:39:54.080Z,11.30
2019-05-01T18:43:57.615Z,11.20
2019-05-01T18:48:01.054Z,11.10
2019-05-01T18:52:05.186Z,11.00
2019-05-01T18:56:08.626Z,10.90
2019-05-01T19:00:12.287Z,11.00
2019-05-01T19:04:18.564Z,10.90
2019-05-01T19:08:21.171Z,10.90
2019-05-01T19:12:25.003Z,10.80
2019-05-01T19:16:28.545Z,10.80
2019-05-01T19:20:32.387Z,10.70
2019-05-01T19:24:38.210Z,10.70
2019-05-01T19:28:41.439Z,10.50
2019-05-01T19:32:44.987Z,10.30
2019-05-01T19:36:51.174Z,10.10
2019-05-01T19:40:53.684Z,10.10
2019-05-01T19:44:57.783Z,10.00
2019-05-01T19:49:01.550Z,10.00
2019-05-01T19:53:05.052Z,10.10
2019-05-01T19:57:08.547Z,10.00
2019-05-01T20:01:12.127Z,10.10
2019-05-01T20:05:15.573Z,10.00
2019-05-01T20:09:19.155Z,9.90
2019-05-01T20:13:22.675Z,9.80
2019-05-01T20:17:26.129Z,9.70
2019-05-01T20:21:29.577Z,9.60
2019-05-01T20:25:33.029Z,9.60
2019-05-01T20:29:36.844Z,9.60
2019-05-01T20:33:44.126Z,9.50
2019-05-01T20:37:45.830Z,9.60
2019-05-01T20:41:49.646Z,9.60
2019-05-01T20:45:53.388Z,9.60
2019-05-01T20:49:57.184Z,9.60
2019-05-01T20:54:01.457Z,9.40
2019-05-01T20:58:15.690Z,9.40
2019-05-01T21:02:19.157Z,9.30
2019-05-01T21:06:30.154Z,9.30
2019-05-01T21:10:36.092Z,9.20
2019-05-01T21:14:39.678Z,9.20
2019-05-01T21:18:43.144Z,9.20
2019-05-01T21:22:46.592Z,9.20
2019-05-01T21:26:50.353Z,9.20
2019-05-01T21:30:54.359Z,9.10
2019-05-01T21:34:58.302Z,9.10
2019-05-01T21:39:01.746Z,9.10
2019-05-01T21:43:05.192Z,9.10
2019-05-01T21:47:08.642Z,9.00
2019-05-01T21:51:12.649Z,9.00
2019-05-01T21:55:16.158Z,9.00
2019-05-01T21:59:19.607Z,8.90
2019-05-01T22:03:23.366Z,8.80
2019-05-01T22:07:27.820Z,8.60
2019-05-01T22:11:33.061Z,8.60
2019-05-01T22:15:41.942Z,8.50
2019-05-01T22:19:44.446Z,8.40
2019-05-01T22:23:58.498Z,8.50
2019-05-01T22:28:09.556Z,8.50
2019-05-01T22:32:27.616Z,8.50
2019-05-01T22:36:29.045Z,8.50
2019-05-01T22:40:50.449Z,8.60
2019-05-01T22:44:54.355Z,8.60
2019-05-01T22:48:57.794Z,8.60
2019-05-01T22:53:01.243Z,8.60
2019-05-01T22:57:04.691Z,8.60
2019-05-01T23:01:08.510Z,8.60
2019-05-01T23:05:12.295Z,8.50
2019-05-01T23:09:17.476Z,8.50
2019-05-01T23:13:20.919Z,8.50
2019-05-01T23:17:39.264Z,8.50
2019-05-01T23:21:40.097Z,8.40
2019-05-01T23:25:43.536Z,8.30
2019-05-01T23:29:46.982Z,8.30
2019-05-01T23:33:51.778Z,8.30
2019-05-01T23:37:55.757Z,8.30
2019-05-01T23:41:59.200Z,8.30
2019-05-01T23:46:02.959Z,8.30
2019-05-01T23:50:07.136Z,8.30
2019-05-01T23:54:10.586Z,8.30
2019-05-01T23:58:15.016Z,8.30
